sensor_id;sensor_type;location;lat;lon;timestamp;P1;durP1;ratioP1;P2;durP2;ratioP2
14923;SDS011;7554;43.600;1.480;2022-12-07T00:02:15;9.37;;;7.50;;
14923;SDS011;7554;43.600;1.480;2022-12-07T00:04:44;10.53;;;7.40;;
14923;SDS011;7554;43.600;1.480;2022-12-07T00:07:12;12.50;;;8.33;;
14923;SDS011;7554;43.600;1.480;2022-12-07T00:09:39;11.90;;;8.70;;
14923;SDS011;7554;43.600;1.480;2022-12-07T00:12:07;11.93;;;8.80;;
14923;SDS011;7554;43.600;1.480;2022-12-07T00:14:35;10.10;;;7.63;;
14923;SDS011;7554;43.600;1.480;2022-12-07T00:17:02;11.40;;;8.40;;
14923;SDS011;7554;43.600;1.480;2022-12-07T00:19:30;11.33;;;7.90;;
14923;SDS011;7554;43.600;1.480;2022-12-07T00:21:58;11.57;;;8.70;;
14923;SDS011;7554;43.600;1.480;2022-12-07T00:24:26;10.50;;;7.83;;
14923;SDS011;7554;43.600;1.480;2022-12-07T00:26:53;10.80;;;8.13;;
14923;SDS011;7554;43.600;1.480;2022-12-07T00:29:21;10.97;;;8.00;;
14923;SDS011;7554;43.600;1.480;2022-12-07T00:31:48;10.77;;;7.87;;
14923;SDS011;7554;43.600;1.480;2022-12-07T00:34:16;10.97;;;7.60;;
14923;SDS011;7554;43.600;1.480;2022-12-07T00:36:45;12.60;;;8.80;;
14923;SDS011;7554;43.600;1.480;2022-12-07T00:39:14;12.93;;;9.40;;
14923;SDS011;7554;43.600;1.480;2022-12-07T00:41:42;14.33;;;9.70;;
14923;SDS011;7554;43.600;1.480;2022-12-07T00:44:09;12.53;;;9.10;;
14923;SDS011;7554;43.600;1.480;2022-12-07T00:46:37;13.10;;;9.50;;
14923;SDS011;7554;43.600;1.480;2022-12-07T00:49:04;13.63;;;9.13;;
14923;SDS011;7554;43.600;1.480;2022-12-07T00:51:32;13.03;;;9.33;;
14923;SDS011;7554;43.600;1.480;2022-12-07T00:53:59;13.30;;;8.87;;
14923;SDS011;7554;43.600;1.480;2022-12-07T00:56:28;14.63;;;9.77;;
14923;SDS011;7554;43.600;1.480;2022-12-07T00:58:56;12.77;;;8.73;;
14923;SDS011;7554;43.600;1.480;2022-12-07T01:01:25;14.03;;;9.33;;
14923;SDS011;7554;43.600;1.480;2022-12-07T01:03:54;11.70;;;7.93;;
14923;SDS011;7554;43.600;1.480;2022-12-07T01:06:22;12.33;;;8.33;;
14923;SDS011;7554;43.600;1.480;2022-12-07T01:08:50;13.80;;;9.20;;
14923;SDS011;7554;43.600;1.480;2022-12-07T01:11:18;14.90;;;9.23;;
14923;SDS011;7554;43.600;1.480;2022-12-07T01:13:49;11.13;;;8.13;;
14923;SDS011;7554;43.600;1.480;2022-12-07T01:16:17;12.60;;;9.20;;
14923;SDS011;7554;43.600;1.480;2022-12-07T01:18:47;12.13;;;9.00;;
14923;SDS011;7554;43.600;1.480;2022-12-07T01:21:15;14.43;;;10.00;;
14923;SDS011;7554;43.600;1.480;2022-12-07T01:23:46;16.37;;;11.03;;
14923;SDS011;7554;43.600;1.480;2022-12-07T01:26:15;15.33;;;10.77;;
14923;SDS011;7554;43.600;1.480;2022-12-07T01:28:43;20.37;;;12.07;;
14923;SDS011;7554;43.600;1.480;2022-12-07T01:31:13;18.33;;;12.77;;
14923;SDS011;7554;43.600;1.480;2022-12-07T01:33:42;23.00;;;13.40;;
14923;SDS011;7554;43.600;1.480;2022-12-07T01:36:13;22.40;;;14.30;;
14923;SDS011;7554;43.600;1.480;2022-12-07T01:38:42;21.63;;;13.57;;
14923;SDS011;7554;43.600;1.480;2022-12-07T01:41:12;22.97;;;14.33;;
14923;SDS011;7554;43.600;1.480;2022-12-07T01:44:06;20.87;;;13.77;;
14923;SDS011;7554;43.600;1.480;2022-12-07T01:46:42;21.67;;;13.20;;
14923;SDS011;7554;43.600;1.480;2022-12-07T01:49:11;19.10;;;11.50;;
14923;SDS011;7554;43.600;1.480;2022-12-07T01:51:42;16.67;;;11.33;;
14923;SDS011;7554;43.600;1.480;2022-12-07T01:54:11;19.50;;;12.03;;
14923;SDS011;7554;43.600;1.480;2022-12-07T01:56:41;17.40;;;11.17;;
14923;SDS011;7554;43.600;1.480;2022-12-07T01:59:12;17.53;;;11.10;;
14923;SDS011;7554;43.600;1.480;2022-12-07T02:01:42;15.23;;;10.80;;
14923;SDS011;7554;43.600;1.480;2022-12-07T02:04:10;15.23;;;11.40;;
14923;SDS011;7554;43.600;1.480;2022-12-07T02:06:38;17.37;;;12.43;;
14923;SDS011;7554;43.600;1.480;2022-12-07T02:09:07;21.10;;;13.87;;
14923;SDS011;7554;43.600;1.480;2022-12-07T02:11:35;22.07;;;13.60;;
14923;SDS011;7554;43.600;1.480;2022-12-07T02:14:02;21.37;;;14.20;;
14923;SDS011;7554;43.600;1.480;2022-12-07T02:16:32;19.63;;;13.53;;
14923;SDS011;7554;43.600;1.480;2022-12-07T02:19:23;23.37;;;14.97;;
14923;SDS011;7554;43.600;1.480;2022-12-07T02:22:14;20.47;;;13.70;;
14923;SDS011;7554;43.600;1.480;2022-12-07T02:24:56;22.30;;;15.27;;
14923;SDS011;7554;43.600;1.480;2022-12-07T02:27:37;23.33;;;15.40;;
14923;SDS011;7554;43.600;1.480;2022-12-07T02:30:13;22.57;;;14.93;;
14923;SDS011;7554;43.600;1.480;2022-12-07T02:32:44;23.70;;;14.17;;
14923;SDS011;7554;43.600;1.480;2022-12-07T02:35:21;17.70;;;12.00;;
14923;SDS011;7554;43.600;1.480;2022-12-07T02:37:58;18.43;;;11.23;;
14923;SDS011;7554;43.600;1.480;2022-12-07T02:40:31;15.50;;;10.97;;
14923;SDS011;7554;43.600;1.480;2022-12-07T02:43:03;15.87;;;11.40;;
14923;SDS011;7554;43.600;1.480;2022-12-07T02:45:36;18.43;;;11.97;;
14923;SDS011;7554;43.600;1.480;2022-12-07T02:48:07;16.13;;;11.07;;
14923;SDS011;7554;43.600;1.480;2022-12-07T02:50:36;15.70;;;10.60;;
14923;SDS011;7554;43.600;1.480;2022-12-07T02:53:04;17.50;;;10.57;;
14923;SDS011;7554;43.600;1.480;2022-12-07T02:55:33;16.53;;;11.40;;
14923;SDS011;7554;43.600;1.480;2022-12-07T02:58:14;14.43;;;10.57;;
14923;SDS011;7554;43.600;1.480;2022-12-07T03:00:54;15.00;;;10.80;;
14923;SDS011;7554;43.600;1.480;2022-12-07T03:03:31;18.87;;;11.33;;
14923;SDS011;7554;43.600;1.480;2022-12-07T03:06:05;19.23;;;11.60;;
14923;SDS011;7554;43.600;1.480;2022-12-07T03:08:41;17.37;;;11.67;;
14923;SDS011;7554;43.600;1.480;2022-12-07T03:11:19;17.33;;;11.27;;
14923;SDS011;7554;43.600;1.480;2022-12-07T03:13:53;17.80;;;12.17;;
14923;SDS011;7554;43.600;1.480;2022-12-07T03:16:31;16.83;;;11.93;;
14923;SDS011;7554;43.600;1.480;2022-12-07T03:19:01;17.83;;;12.80;;
14923;SDS011;7554;43.600;1.480;2022-12-07T03:21:31;17.30;;;13.17;;
14923;SDS011;7554;43.600;1.480;2022-12-07T03:24:03;20.87;;;13.70;;
14923;SDS011;7554;43.600;1.480;2022-12-07T03:26:34;19.03;;;13.67;;
14923;SDS011;7554;43.600;1.480;2022-12-07T03:29:06;23.37;;;13.97;;
14923;SDS011;7554;43.600;1.480;2022-12-07T03:31:39;20.77;;;14.10;;
14923;SDS011;7554;43.600;1.480;2022-12-07T03:34:10;17.60;;;13.83;;
14923;SDS011;7554;43.600;1.480;2022-12-07T03:36:43;21.13;;;15.43;;
14923;SDS011;7554;43.600;1.480;2022-12-07T03:39:16;26.17;;;17.90;;
14923;SDS011;7554;43.600;1.480;2022-12-07T03:41:49;24.80;;;17.33;;
14923;SDS011;7554;43.600;1.480;2022-12-07T03:44:18;23.93;;;17.60;;
14923;SDS011;7554;43.600;1.480;2022-12-07T03:46:50;23.80;;;16.60;;
14923;SDS011;7554;43.600;1.480;2022-12-07T03:49:25;25.00;;;15.80;;
14923;SDS011;7554;43.600;1.480;2022-12-07T03:51:59;21.70;;;15.60;;
14923;SDS011;7554;43.600;1.480;2022-12-07T03:54:32;22.17;;;15.43;;
14923;SDS011;7554;43.600;1.480;2022-12-07T03:57:04;22.37;;;15.73;;
14923;SDS011;7554;43.600;1.480;2022-12-07T03:59:34;22.83;;;15.63;;
14923;SDS011;7554;43.600;1.480;2022-12-07T04:02:04;23.63;;;16.53;;
14923;SDS011;7554;43.600;1.480;2022-12-07T04:04:33;22.07;;;16.53;;
14923;SDS011;7554;43.600;1.480;2022-12-07T04:07:01;24.53;;;17.13;;
14923;SDS011;7554;43.600;1.480;2022-12-07T04:09:28;25.40;;;17.77;;
14923;SDS011;7554;43.600;1.480;2022-12-07T04:11:56;24.57;;;17.33;;
14923;SDS011;7554;43.600;1.480;2022-12-07T04:14:23;26.43;;;17.20;;
14923;SDS011;7554;43.600;1.480;2022-12-07T04:16:51;25.90;;;17.40;;
14923;SDS011;7554;43.600;1.480;2022-12-07T04:19:24;27.77;;;17.07;;
14923;SDS011;7554;43.600;1.480;2022-12-07T04:21:53;23.50;;;17.70;;
14923;SDS011;7554;43.600;1.480;2022-12-07T04:24:21;29.20;;;18.30;;
14923;SDS011;7554;43.600;1.480;2022-12-07T04:26:49;28.00;;;19.27;;
14923;SDS011;7554;43.600;1.480;2022-12-07T04:29:17;27.63;;;19.43;;
14923;SDS011;7554;43.600;1.480;2022-12-07T04:31:44;25.93;;;18.00;;
14923;SDS011;7554;43.600;1.480;2022-12-07T04:34:12;26.03;;;18.47;;
14923;SDS011;7554;43.600;1.480;2022-12-07T04:36:41;29.13;;;19.27;;
14923;SDS011;7554;43.600;1.480;2022-12-07T04:39:13;28.37;;;19.57;;
14923;SDS011;7554;43.600;1.480;2022-12-07T04:41:45;26.80;;;18.43;;
14923;SDS011;7554;43.600;1.480;2022-12-07T04:44:12;28.57;;;19.27;;
14923;SDS011;7554;43.600;1.480;2022-12-07T04:46:40;27.03;;;18.73;;
14923;SDS011;7554;43.600;1.480;2022-12-07T04:49:08;28.70;;;20.33;;
14923;SDS011;7554;43.600;1.480;2022-12-07T04:51:36;31.20;;;21.37;;
14923;SDS011;7554;43.600;1.480;2022-12-07T04:54:05;28.77;;;22.27;;
14923;SDS011;7554;43.600;1.480;2022-12-07T04:56:32;32.30;;;19.93;;
14923;SDS011;7554;43.600;1.480;2022-12-07T04:59:01;26.83;;;19.67;;
14923;SDS011;7554;43.600;1.480;2022-12-07T05:01:29;29.80;;;20.67;;
14923;SDS011;7554;43.600;1.480;2022-12-07T05:03:57;29.20;;;20.87;;
14923;SDS011;7554;43.600;1.480;2022-12-07T05:06:25;29.73;;;20.33;;
14923;SDS011;7554;43.600;1.480;2022-12-07T05:08:52;31.47;;;20.47;;
14923;SDS011;7554;43.600;1.480;2022-12-07T05:11:21;28.47;;;19.73;;
14923;SDS011;7554;43.600;1.480;2022-12-07T05:14:05;27.27;;;19.93;;
14923;SDS011;7554;43.600;1.480;2022-12-07T05:16:34;29.07;;;20.43;;
14923;SDS011;7554;43.600;1.480;2022-12-07T05:19:02;30.83;;;21.87;;
14923;SDS011;7554;43.600;1.480;2022-12-07T05:21:29;32.20;;;21.60;;
14923;SDS011;7554;43.600;1.480;2022-12-07T05:23:57;29.80;;;22.23;;
14923;SDS011;7554;43.600;1.480;2022-12-07T05:26:26;30.60;;;21.37;;
14923;SDS011;7554;43.600;1.480;2022-12-07T05:28:53;28.73;;;21.20;;
14923;SDS011;7554;43.600;1.480;2022-12-07T05:31:22;33.77;;;22.03;;
14923;SDS011;7554;43.600;1.480;2022-12-07T05:33:51;29.50;;;21.60;;
14923;SDS011;7554;43.600;1.480;2022-12-07T05:36:18;31.20;;;21.10;;
14923;SDS011;7554;43.600;1.480;2022-12-07T05:38:46;29.50;;;21.87;;
14923;SDS011;7554;43.600;1.480;2022-12-07T05:41:14;30.60;;;20.63;;
14923;SDS011;7554;43.600;1.480;2022-12-07T05:44:01;34.20;;;21.60;;
14923;SDS011;7554;43.600;1.480;2022-12-07T05:46:29;28.97;;;20.90;;
14923;SDS011;7554;43.600;1.480;2022-12-07T05:48:56;31.17;;;21.43;;
14923;SDS011;7554;43.600;1.480;2022-12-07T05:51:24;31.13;;;20.73;;
14923;SDS011;7554;43.600;1.480;2022-12-07T05:53:51;33.53;;;21.90;;
14923;SDS011;7554;43.600;1.480;2022-12-07T05:56:18;30.67;;;22.10;;
14923;SDS011;7554;43.600;1.480;2022-12-07T05:58:46;28.77;;;20.60;;
14923;SDS011;7554;43.600;1.480;2022-12-07T06:01:32;28.77;;;19.63;;
14923;SDS011;7554;43.600;1.480;2022-12-07T06:04:00;30.17;;;20.17;;
14923;SDS011;7554;43.600;1.480;2022-12-07T06:06:27;31.53;;;21.43;;
14923;SDS011;7554;43.600;1.480;2022-12-07T06:08:54;29.00;;;20.77;;
14923;SDS011;7554;43.600;1.480;2022-12-07T06:11:22;25.90;;;19.83;;
14923;SDS011;7554;43.600;1.480;2022-12-07T06:14:07;28.67;;;20.80;;
14923;SDS011;7554;43.600;1.480;2022-12-07T06:16:35;30.33;;;21.63;;
14923;SDS011;7554;43.600;1.480;2022-12-07T06:19:03;25.30;;;19.90;;
14923;SDS011;7554;43.600;1.480;2022-12-07T06:21:30;26.37;;;19.87;;
14923;SDS011;7554;43.600;1.480;2022-12-07T06:23:57;29.93;;;20.63;;
14923;SDS011;7554;43.600;1.480;2022-12-07T06:26:25;32.83;;;20.33;;
14923;SDS011;7554;43.600;1.480;2022-12-07T06:28:52;28.23;;;19.80;;
14923;SDS011;7554;43.600;1.480;2022-12-07T06:31:20;26.73;;;20.07;;
14923;SDS011;7554;43.600;1.480;2022-12-07T06:33:49;30.27;;;20.90;;
14923;SDS011;7554;43.600;1.480;2022-12-07T06:36:16;27.67;;;20.27;;
14923;SDS011;7554;43.600;1.480;2022-12-07T06:38:43;32.40;;;23.67;;
14923;SDS011;7554;43.600;1.480;2022-12-07T06:41:11;36.93;;;23.40;;
14923;SDS011;7554;43.600;1.480;2022-12-07T06:43:38;30.70;;;24.30;;
14923;SDS011;7554;43.600;1.480;2022-12-07T06:46:07;33.40;;;24.63;;
14923;SDS011;7554;43.600;1.480;2022-12-07T06:48:34;33.33;;;23.00;;
14923;SDS011;7554;43.600;1.480;2022-12-07T06:51:03;33.97;;;24.23;;
14923;SDS011;7554;43.600;1.480;2022-12-07T06:53:31;30.53;;;21.97;;
14923;SDS011;7554;43.600;1.480;2022-12-07T06:55:58;28.67;;;21.50;;
14923;SDS011;7554;43.600;1.480;2022-12-07T06:58:26;31.57;;;21.10;;
14923;SDS011;7554;43.600;1.480;2022-12-07T07:00:53;31.07;;;20.53;;
14923;SDS011;7554;43.600;1.480;2022-12-07T07:03:21;30.13;;;21.17;;
14923;SDS011;7554;43.600;1.480;2022-12-07T07:05:48;32.87;;;21.93;;
14923;SDS011;7554;43.600;1.480;2022-12-07T07:08:17;31.70;;;20.77;;
14923;SDS011;7554;43.600;1.480;2022-12-07T07:10:45;28.90;;;21.60;;
14923;SDS011;7554;43.600;1.480;2022-12-07T07:13:12;29.60;;;21.00;;
14923;SDS011;7554;43.600;1.480;2022-12-07T07:15:39;30.83;;;21.03;;
14923;SDS011;7554;43.600;1.480;2022-12-07T07:18:07;29.97;;;20.90;;
14923;SDS011;7554;43.600;1.480;2022-12-07T07:20:34;27.67;;;19.87;;
14923;SDS011;7554;43.600;1.480;2022-12-07T07:23:02;28.80;;;20.67;;
14923;SDS011;7554;43.600;1.480;2022-12-07T07:25:31;29.00;;;21.13;;
14923;SDS011;7554;43.600;1.480;2022-12-07T07:27:58;29.30;;;20.70;;
14923;SDS011;7554;43.600;1.480;2022-12-07T07:30:26;32.00;;;22.77;;
14923;SDS011;7554;43.600;1.480;2022-12-07T07:32:55;30.20;;;22.37;;
14923;SDS011;7554;43.600;1.480;2022-12-07T07:35:24;29.83;;;21.13;;
14923;SDS011;7554;43.600;1.480;2022-12-07T07:37:51;29.53;;;21.93;;
14923;SDS011;7554;43.600;1.480;2022-12-07T07:40:19;31.50;;;21.63;;
14923;SDS011;7554;43.600;1.480;2022-12-07T07:42:48;29.80;;;21.10;;
14923;SDS011;7554;43.600;1.480;2022-12-07T07:45:16;27.07;;;20.43;;
14923;SDS011;7554;43.600;1.480;2022-12-07T07:47:44;32.50;;;20.30;;
14923;SDS011;7554;43.600;1.480;2022-12-07T07:50:12;32.60;;;21.27;;
14923;SDS011;7554;43.600;1.480;2022-12-07T07:52:40;30.73;;;20.53;;
14923;SDS011;7554;43.600;1.480;2022-12-07T07:55:08;31.13;;;19.67;;
14923;SDS011;7554;43.600;1.480;2022-12-07T07:57:35;31.13;;;20.60;;
14923;SDS011;7554;43.600;1.480;2022-12-07T08:00:06;29.17;;;20.27;;
14923;SDS011;7554;43.600;1.480;2022-12-07T08:02:36;26.80;;;20.37;;
14923;SDS011;7554;43.600;1.480;2022-12-07T08:05:06;29.00;;;20.03;;
14923;SDS011;7554;43.600;1.480;2022-12-07T08:07:34;28.77;;;20.00;;
14923;SDS011;7554;43.600;1.480;2022-12-07T08:10:02;30.23;;;19.37;;
14923;SDS011;7554;43.600;1.480;2022-12-07T08:12:30;26.80;;;18.80;;
14923;SDS011;7554;43.600;1.480;2022-12-07T08:14:57;30.20;;;19.17;;
14923;SDS011;7554;43.600;1.480;2022-12-07T08:17:26;30.70;;;19.30;;
14923;SDS011;7554;43.600;1.480;2022-12-07T08:19:53;30.43;;;21.00;;
14923;SDS011;7554;43.600;1.480;2022-12-07T08:22:21;31.90;;;20.70;;
14923;SDS011;7554;43.600;1.480;2022-12-07T08:24:49;28.47;;;19.60;;
14923;SDS011;7554;43.600;1.480;2022-12-07T08:27:16;31.47;;;20.43;;
14923;SDS011;7554;43.600;1.480;2022-12-07T08:29:44;31.83;;;20.13;;
14923;SDS011;7554;43.600;1.480;2022-12-07T08:32:11;27.77;;;19.20;;
14923;SDS011;7554;43.600;1.480;2022-12-07T08:34:40;32.33;;;19.80;;
14923;SDS011;7554;43.600;1.480;2022-12-07T08:37:07;27.77;;;20.53;;
14923;SDS011;7554;43.600;1.480;2022-12-07T08:39:35;28.33;;;20.00;;
14923;SDS011;7554;43.600;1.480;2022-12-07T08:42:02;28.33;;;20.57;;
14923;SDS011;7554;43.600;1.480;2022-12-07T08:44:30;32.97;;;20.93;;
14923;SDS011;7554;43.600;1.480;2022-12-07T08:46:58;31.23;;;20.87;;
14923;SDS011;7554;43.600;1.480;2022-12-07T08:49:30;28.13;;;19.90;;
14923;SDS011;7554;43.600;1.480;2022-12-07T08:52:01;30.37;;;19.73;;
14923;SDS011;7554;43.600;1.480;2022-12-07T08:54:31;28.20;;;20.43;;
14923;SDS011;7554;43.600;1.480;2022-12-07T08:57:01;29.57;;;19.53;;
14923;SDS011;7554;43.600;1.480;2022-12-07T08:59:29;26.97;;;18.87;;
14923;SDS011;7554;43.600;1.480;2022-12-07T09:01:57;25.43;;;17.83;;
14923;SDS011;7554;43.600;1.480;2022-12-07T09:04:24;27.77;;;18.80;;
14923;SDS011;7554;43.600;1.480;2022-12-07T09:06:52;23.03;;;17.67;;
14923;SDS011;7554;43.600;1.480;2022-12-07T09:09:22;24.73;;;16.37;;
14923;SDS011;7554;43.600;1.480;2022-12-07T09:11:49;21.33;;;15.47;;
14923;SDS011;7554;43.600;1.480;2022-12-07T09:14:17;26.37;;;16.03;;
14923;SDS011;7554;43.600;1.480;2022-12-07T09:16:44;25.30;;;16.23;;
14923;SDS011;7554;43.600;1.480;2022-12-07T09:19:11;21.73;;;15.50;;
14923;SDS011;7554;43.600;1.480;2022-12-07T09:21:39;25.10;;;16.07;;
14923;SDS011;7554;43.600;1.480;2022-12-07T09:24:06;21.93;;;15.93;;
14923;SDS011;7554;43.600;1.480;2022-12-07T09:26:35;22.87;;;15.57;;
14923;SDS011;7554;43.600;1.480;2022-12-07T09:29:04;21.63;;;14.67;;
14923;SDS011;7554;43.600;1.480;2022-12-07T09:31:32;20.63;;;13.73;;
14923;SDS011;7554;43.600;1.480;2022-12-07T09:34:00;24.47;;;14.80;;
14923;SDS011;7554;43.600;1.480;2022-12-07T09:36:27;22.07;;;14.20;;
14923;SDS011;7554;43.600;1.480;2022-12-07T09:38:55;20.50;;;13.87;;
14923;SDS011;7554;43.600;1.480;2022-12-07T09:41:23;21.50;;;12.70;;
14923;SDS011;7554;43.600;1.480;2022-12-07T09:43:53;19.33;;;13.67;;
14923;SDS011;7554;43.600;1.480;2022-12-07T09:46:28;20.97;;;12.53;;
14923;SDS011;7554;43.600;1.480;2022-12-07T09:48:58;18.87;;;13.87;;
14923;SDS011;7554;43.600;1.480;2022-12-07T09:51:25;21.70;;;14.17;;
14923;SDS011;7554;43.600;1.480;2022-12-07T09:53:53;19.73;;;14.53;;
14923;SDS011;7554;43.600;1.480;2022-12-07T09:56:23;18.70;;;13.30;;
14923;SDS011;7554;43.600;1.480;2022-12-07T09:58:51;17.83;;;12.23;;
14923;SDS011;7554;43.600;1.480;2022-12-07T10:01:27;17.53;;;12.40;;
14923;SDS011;7554;43.600;1.480;2022-12-07T10:03:59;18.07;;;12.50;;
14923;SDS011;7554;43.600;1.480;2022-12-07T10:06:33;15.00;;;11.10;;
14923;SDS011;7554;43.600;1.480;2022-12-07T10:09:00;19.37;;;10.90;;
14923;SDS011;7554;43.600;1.480;2022-12-07T10:11:28;17.60;;;11.07;;
14923;SDS011;7554;43.600;1.480;2022-12-07T10:14:09;17.63;;;12.57;;
14923;SDS011;7554;43.600;1.480;2022-12-07T10:16:39;17.13;;;11.30;;
14923;SDS011;7554;43.600;1.480;2022-12-07T10:19:18;18.17;;;11.83;;
14923;SDS011;7554;43.600;1.480;2022-12-07T10:22:00;17.20;;;11.17;;
14923;SDS011;7554;43.600;1.480;2022-12-07T10:24:30;17.33;;;11.07;;
14923;SDS011;7554;43.600;1.480;2022-12-07T10:26:58;19.57;;;10.30;;
14923;SDS011;7554;43.600;1.480;2022-12-07T10:29:29;13.43;;;9.93;;
14923;SDS011;7554;43.600;1.480;2022-12-07T10:32:00;15.60;;;10.70;;
14923;SDS011;7554;43.600;1.480;2022-12-07T10:34:31;14.73;;;10.10;;
14923;SDS011;7554;43.600;1.480;2022-12-07T10:37:11;15.93;;;10.40;;
14923;SDS011;7554;43.600;1.480;2022-12-07T10:39:42;14.03;;;9.47;;
14923;SDS011;7554;43.600;1.480;2022-12-07T10:42:16;13.57;;;10.20;;
14923;SDS011;7554;43.600;1.480;2022-12-07T10:44:46;17.57;;;11.50;;
14923;SDS011;7554;43.600;1.480;2022-12-07T10:47:18;13.53;;;10.60;;
14923;SDS011;7554;43.600;1.480;2022-12-07T10:50:05;14.70;;;10.50;;
14923;SDS011;7554;43.600;1.480;2022-12-07T10:55:54;11.77;;;9.10;;
14923;SDS011;7554;43.600;1.480;2022-12-07T10:58:37;13.67;;;9.33;;
14923;SDS011;7554;43.600;1.480;2022-12-07T11:01:18;11.23;;;8.70;;
14923;SDS011;7554;43.600;1.480;2022-12-07T11:03:53;12.57;;;9.43;;
14923;SDS011;7554;43.600;1.480;2022-12-07T11:06:40;11.97;;;9.00;;
14923;SDS011;7554;43.600;1.480;2022-12-07T11:09:20;16.10;;;9.90;;
14923;SDS011;7554;43.600;1.480;2022-12-07T11:12:08;17.97;;;9.77;;
14923;SDS011;7554;43.600;1.480;2022-12-07T11:14:41;15.97;;;10.27;;
14923;SDS011;7554;43.600;1.480;2022-12-07T11:17:17;12.50;;;9.10;;
14923;SDS011;7554;43.600;1.480;2022-12-07T11:19:50;12.83;;;8.93;;
14923;SDS011;7554;43.600;1.480;2022-12-07T11:22:29;12.37;;;9.03;;
14923;SDS011;7554;43.600;1.480;2022-12-07T11:25:13;13.07;;;9.30;;
14923;SDS011;7554;43.600;1.480;2022-12-07T11:27:48;10.43;;;8.67;;
14923;SDS011;7554;43.600;1.480;2022-12-07T11:30:30;14.10;;;9.03;;
14923;SDS011;7554;43.600;1.480;2022-12-07T11:33:10;13.47;;;8.80;;
14923;SDS011;7554;43.600;1.480;2022-12-07T11:35:47;9.80;;;8.00;;
14923;SDS011;7554;43.600;1.480;2022-12-07T11:38:26;11.30;;;8.37;;
14923;SDS011;7554;43.600;1.480;2022-12-07T11:41:03;10.37;;;7.30;;
14923;SDS011;7554;43.600;1.480;2022-12-07T11:43:42;15.13;;;8.00;;
14923;SDS011;7554;43.600;1.480;2022-12-07T11:46:22;14.53;;;8.63;;
14923;SDS011;7554;43.600;1.480;2022-12-07T11:48:58;13.33;;;7.17;;
14923;SDS011;7554;43.600;1.480;2022-12-07T11:51:30;12.10;;;7.13;;
14923;SDS011;7554;43.600;1.480;2022-12-07T11:54:03;10.63;;;7.30;;
14923;SDS011;7554;43.600;1.480;2022-12-07T11:56:39;8.37;;;6.77;;
14923;SDS011;7554;43.600;1.480;2022-12-07T11:59:08;12.03;;;7.33;;
14923;SDS011;7554;43.600;1.480;2022-12-07T12:01:42;15.27;;;7.47;;
14923;SDS011;7554;43.600;1.480;2022-12-07T12:04:22;10.47;;;6.87;;
14923;SDS011;7554;43.600;1.480;2022-12-07T12:06:57;7.23;;;6.40;;
14923;SDS011;7554;43.600;1.480;2022-12-07T12:09:26;13.03;;;7.30;;
14923;SDS011;7554;43.600;1.480;2022-12-07T12:15:02;10.90;;;7.03;;
14923;SDS011;7554;43.600;1.480;2022-12-07T12:17:50;10.30;;;7.87;;
14923;SDS011;7554;43.600;1.480;2022-12-07T12:20:35;11.30;;;6.57;;
14923;SDS011;7554;43.600;1.480;2022-12-07T12:23:09;12.70;;;7.00;;
14923;SDS011;7554;43.600;1.480;2022-12-07T12:25:40;11.40;;;7.30;;
14923;SDS011;7554;43.600;1.480;2022-12-07T12:28:18;10.03;;;7.10;;
14923;SDS011;7554;43.600;1.480;2022-12-07T12:31:05;12.27;;;7.10;;
14923;SDS011;7554;43.600;1.480;2022-12-07T12:33:35;15.57;;;8.10;;
14923;SDS011;7554;43.600;1.480;2022-12-07T12:36:21;10.73;;;7.57;;
14923;SDS011;7554;43.600;1.480;2022-12-07T12:38:51;10.53;;;7.43;;
14923;SDS011;7554;43.600;1.480;2022-12-07T12:44:40;11.27;;;7.73;;
14923;SDS011;7554;43.600;1.480;2022-12-07T12:47:40;12.03;;;7.63;;
14923;SDS011;7554;43.600;1.480;2022-12-07T12:50:22;11.43;;;7.20;;
14923;SDS011;7554;43.600;1.480;2022-12-07T12:52:53;9.43;;;7.00;;
14923;SDS011;7554;43.600;1.480;2022-12-07T12:55:29;12.33;;;7.23;;
14923;SDS011;7554;43.600;1.480;2022-12-07T13:04:12;12.27;;;7.43;;
14923;SDS011;7554;43.600;1.480;2022-12-07T13:06:59;9.83;;;7.17;;
14923;SDS011;7554;43.600;1.480;2022-12-07T13:09:28;10.60;;;7.13;;
14923;SDS011;7554;43.600;1.480;2022-12-07T13:12:00;12.27;;;8.13;;
14923;SDS011;7554;43.600;1.480;2022-12-07T13:14:38;9.80;;;6.83;;
14923;SDS011;7554;43.600;1.480;2022-12-07T13:17:08;11.27;;;7.23;;
14923;SDS011;7554;43.600;1.480;2022-12-07T13:25:22;7.97;;;6.17;;
14923;SDS011;7554;43.600;1.480;2022-12-07T13:27:57;11.80;;;5.67;;
14923;SDS011;7554;43.600;1.480;2022-12-07T13:30:28;10.60;;;6.23;;
14923;SDS011;7554;43.600;1.480;2022-12-07T13:32:57;7.27;;;5.67;;
14923;SDS011;7554;43.600;1.480;2022-12-07T13:35:30;9.33;;;6.20;;
14923;SDS011;7554;43.600;1.480;2022-12-07T13:38:00;14.20;;;5.83;;
14923;SDS011;7554;43.600;1.480;2022-12-07T13:40:31;9.17;;;6.00;;
14923;SDS011;7554;43.600;1.480;2022-12-07T13:42:59;12.20;;;5.43;;
14923;SDS011;7554;43.600;1.480;2022-12-07T13:45:29;8.67;;;5.70;;
14923;SDS011;7554;43.600;1.480;2022-12-07T13:48:19;11.97;;;5.93;;
14923;SDS011;7554;43.600;1.480;2022-12-07T13:50:55;7.27;;;5.17;;
14923;SDS011;7554;43.600;1.480;2022-12-07T13:53:23;7.53;;;5.30;;
14923;SDS011;7554;43.600;1.480;2022-12-07T13:55:56;9.60;;;5.03;;
14923;SDS011;7554;43.600;1.480;2022-12-07T13:58:25;7.03;;;5.00;;
14923;SDS011;7554;43.600;1.480;2022-12-07T14:00:56;7.83;;;5.00;;
14923;SDS011;7554;43.600;1.480;2022-12-07T14:03:29;8.47;;;5.27;;
14923;SDS011;7554;43.600;1.480;2022-12-07T14:06:13;6.70;;;5.30;;
14923;SDS011;7554;43.600;1.480;2022-12-07T14:09:06;8.47;;;4.77;;
14923;SDS011;7554;43.600;1.480;2022-12-07T14:11:36;6.70;;;4.87;;
14923;SDS011;7554;43.600;1.480;2022-12-07T14:14:05;11.80;;;5.20;;
14923;SDS011;7554;43.600;1.480;2022-12-07T14:16:33;8.57;;;5.40;;
14923;SDS011;7554;43.600;1.480;2022-12-07T14:19:02;6.90;;;5.37;;
14923;SDS011;7554;43.600;1.480;2022-12-07T14:21:31;11.10;;;5.43;;
14923;SDS011;7554;43.600;1.480;2022-12-07T14:26:47;9.37;;;5.57;;
14923;SDS011;7554;43.600;1.480;2022-12-07T14:29:20;8.60;;;5.90;;
14923;SDS011;7554;43.600;1.480;2022-12-07T14:31:49;7.97;;;5.73;;
14923;SDS011;7554;43.600;1.480;2022-12-07T14:34:19;9.93;;;5.50;;
14923;SDS011;7554;43.600;1.480;2022-12-07T14:36:46;9.50;;;5.70;;
14923;SDS011;7554;43.600;1.480;2022-12-07T14:39:14;11.67;;;6.17;;
14923;SDS011;7554;43.600;1.480;2022-12-07T14:41:41;9.07;;;6.23;;
14923;SDS011;7554;43.600;1.480;2022-12-07T14:44:19;10.73;;;6.43;;
14923;SDS011;7554;43.600;1.480;2022-12-07T14:46:48;12.33;;;6.80;;
14923;SDS011;7554;43.600;1.480;2022-12-07T14:49:16;9.60;;;6.30;;
14923;SDS011;7554;43.600;1.480;2022-12-07T14:51:45;10.23;;;6.30;;
14923;SDS011;7554;43.600;1.480;2022-12-07T14:54:15;12.50;;;6.87;;
14923;SDS011;7554;43.600;1.480;2022-12-07T14:56:44;9.57;;;6.73;;
14923;SDS011;7554;43.600;1.480;2022-12-07T14:59:14;10.67;;;7.07;;
14923;SDS011;7554;43.600;1.480;2022-12-07T15:01:43;11.27;;;7.13;;
14923;SDS011;7554;43.600;1.480;2022-12-07T15:04:11;8.63;;;6.57;;
14923;SDS011;7554;43.600;1.480;2022-12-07T15:06:38;11.03;;;6.87;;
14923;SDS011;7554;43.600;1.480;2022-12-07T15:09:09;10.77;;;7.40;;
14923;SDS011;7554;43.600;1.480;2022-12-07T15:11:37;9.80;;;7.20;;
14923;SDS011;7554;43.600;1.480;2022-12-07T15:14:04;12.13;;;7.17;;
14923;SDS011;7554;43.600;1.480;2022-12-07T15:16:36;9.13;;;6.80;;
14923;SDS011;7554;43.600;1.480;2022-12-07T15:19:07;12.60;;;6.20;;
14923;SDS011;7554;43.600;1.480;2022-12-07T15:21:40;8.50;;;6.10;;
14923;SDS011;7554;43.600;1.480;2022-12-07T15:24:09;11.97;;;6.30;;
14923;SDS011;7554;43.600;1.480;2022-12-07T15:26:38;9.07;;;5.87;;
14923;SDS011;7554;43.600;1.480;2022-12-07T15:29:07;9.00;;;6.40;;